Buoy 54955

sailwx.info

Track history (hours):
 
Tides and Currents Weather Stations Pressure Air Temp Water Temp Dewpoint Dewpoint Depression Visibility Wind Speed Wind Dir Waves Ship Positions

Luruyu54955

Last reported at 2016-May-02 16:00 UTC. Time now 2016-May-02 23:16 UTC.
Position S 37°06' W 159°49'.

Length 27 m.

Type: Fishing. MMSI: 412330945.

Barometer 1018.9 mb
Water temperature 16.3 ° C

Date/timePositionNaut miles runAvg speedWind from/ knotsBaromVisibWave heightAir tempDewpointWater temp
2016-May-02 16:00S 37°06' W 159°49'1 0.9 1018.9 16.3
2016-May-02 15:00S 37°07' W 159°49'1 0.3 1018.5 16.3
2016-May-02 11:00S 37°08' W 159°50'1 0.2 1017.7 16.4
2016-May-02 05:00S 37°08' W 159°52'2 1.6 1014.2 16.4
2016-May-02 04:00S 37°09' W 159°50'1 1.2 1013.6 16.4
2016-May-02 03:00S 37°09' W 159°48'2 1.8 1013.2 16.4
2016-May-02 02:00S 37°10' W 159°50'0 0.0 1013.1 16.5
2016-May-02 01:00S 37°10' W 159°50'2 0.4 1013.2 16.4
2016-May-01 19:00S 37°12' W 159°51'1 0.9 1016.1 16.4
2016-May-01 18:00S 37°13' W 159°52'0 0.2 1015.8 16.4
2016-May-01 17:00S 37°13' W 159°52'0 0.5 1016.1 16.4
2016-May-01 16:00S 37°13' W 159°52'1 0.4 1015.9 16.4
2016-May-01 12:00S 37°14' W 159°54'0 0.0 1016.5 16.4
2016-May-01 11:00S 37°14' W 159°54'1 0.3 1016.6 16.4
2016-May-01 07:00S 37°15' W 159°53'1 0.3 1016.0 16.5
2016-May-01 05:00S 37°15' W 159°52'1 0.8 1015.2 16.4
2016-May-01 04:00S 37°16' W 159°52'1 0.7 1014.2 16.5
2016-May-01 03:00S 37°16' W 159°51'1 1.3 1013.7 16.5
2016-May-01 02:00S 37°17' W 159°52'0 0.0 1013.2 16.5
2016-May-01 01:00S 37°17' W 159°52'4 0.5 1012.7 16.5
2016-Apr-30 17:00S 37°21' W 159°53'1 0.6 1009.1 16.5
2016-Apr-30 15:00S 37°22' W 159°53'0 0.0 1007.9 16.5
2016-Apr-30 14:00S 37°22' W 159°53'1 0.5 1007.7 16.5
2016-Apr-30 12:00S 37°23' W 159°53'1 0.3 1008.7 16.6
2016-Apr-30 09:00S 37°24' W 159°54'0 0.0 1011.6 16.5
2016-Apr-30 08:00S 37°24' W 159°54'2 1.8 1012.2 16.5
2016-Apr-30 07:00S 37°25' W 159°55'1 0.4 1012.7 16.6
2016-Apr-30 05:00S 37°24' W 159°56'1 1.0 1013.9 16.6
2016-Apr-30 04:00S 37°25' W 159°55'0 0.3 1014.3 16.6
2016-Apr-30 03:00S 37°24' W 159°55'1 0.1 1014.7 16.6
2016-Apr-29 18:00S 37°26' W 159°56'0 0.0 1018.3 16.6
2016-Apr-29 17:00S 37°26' W 159°56'0 0.4 1018.2 16.6
2016-Apr-29 16:00S 37°26' W 159°56'0 0.5 1018.1 16.6
2016-Apr-29 15:00S 37°26' W 159°56'2 0.8 1018.1 16.6
2016-Apr-29 12:00S 37°29' W 159°57'0 0.1 1018.5 16.6
2016-Apr-29 07:00S 37°29' W 159°57'1 0.4 1018.5 16.7
2016-Apr-29 05:00S 37°29' W 159°56'1 0.3 1018.3 16.7
2016-Apr-29 02:00S 37°29' W 159°57'0 0.4 1017.0 16.7
2016-Apr-29 01:00S 37°29' W 159°57'1 0.3 1016.9 16.7
2016-Apr-28 20:00S 37°30' W 159°56'1 0.5 1016.9 16.7
2016-Apr-28 18:00S 37°31' W 159°56'1 0.3 1016.4 16.7
2016-Apr-28 16:00S 37°31' W 159°56'2 0.2 1016.0 16.7
2016-Apr-28 08:00S 37°32' W 159°58'1 0.2 1017.0 16.7
2016-Apr-28 05:00S 37°33' W 159°59'1 0.9 1017.4 16.7
2016-Apr-28 04:00S 37°34' W 159°58'1 0.5 1017.3 16.8
2016-Apr-28 02:00S 37°34' W 159°59'3 0.3 1017.6 16.8
2016-Apr-27 17:00S 37°37' W 160°01'0 0.0 1018.4 16.7
2016-Apr-27 16:00S 37°37' W 160°01'1 0.2 1018.5 16.7
2016-Apr-27 10:00S 37°37' W 159°59'1 0.3 1016.3 16.8
2016-Apr-27 08:00S 37°38' W 159°60'0 0.2 1015.3 16.8
2016-Apr-27 06:00S 37°38' W 159°59'1 0.5 1013.8 16.8
2016-Apr-27 04:00S 37°39' W 159°59'1 1.2 1012.0 16.8
2016-Apr-27 03:00S 37°40' W 159°59'0 0.0 1011.0 16.8
2016-Apr-27 02:00S 37°40' W 159°59'0 0.1 1010.4 16.8
2016-Apr-27 01:00S 37°40' W 159°59'1 0.3 1009.2 16.8
2016-Apr-26 20:00S 37°41' W 159°60'1 0.2 1006.2 16.8
2016-Apr-26 17:00S 37°42' W 159°59'1 0.5 1006.1 16.8
2016-Apr-26 16:00S 37°42' W 159°59'1 0.5 1006.4 16.8
2016-Apr-26 14:00S 37°43' W 160°00'1 1.0 1006.7 16.8
2016-Apr-26 13:00S 37°44' W 160°00'0 0.0 1007.5 16.8
2016-Apr-26 12:00S 37°44' W 160°00'0 0.2 1008.0 16.8
2016-Apr-26 09:00S 37°43' W 160°00'1 0.9 1009.2 16.8
2016-Apr-26 08:00S 37°44' W 160°01'1 0.3 1009.7 16.9
2016-Apr-26 05:00S 37°45' W 160°02'1 1.0 1010.6 16.9
2016-Apr-26 04:00S 37°45' W 160°00'3 2.7 1010.6 16.9
2016-Apr-26 03:00S 37°46' W 160°04'1 0.4 1010.6 16.9
2016-Apr-26 01:00S 37°46' W 160°03'0 0.0 1010.9 17.0
2016-Apr-25 23:00S 37°46' W 160°03'1 0.2 1012.0 16.9
2016-Apr-25 17:00S 37°47' W 160°03'2 1.7 1012.6 16.8
2016-Apr-25 16:00S 37°49' W 160°03'0 0.0 1012.5 16.8
2016-Apr-25 13:00S 37°49' W 160°03'4 0.6 1013.0 16.8
2016-Apr-25 06:00S 37°51' W 160°07'2 0.4 1014.8 16.9
2016-Apr-25 00:00S 37°52' W 160°10'0 0.0 1016.4 16.9
2016-Apr-24 23:00S 37°52' W 160°10'1 0.2 1017.6 16.9
2016-Apr-24 20:00S 37°53' W 160°09'1 0.3 1019.3 16.8
2016-Apr-24 17:00S 37°52' W 160°10'1 1.1 1019.9 16.8
2016-Apr-24 16:00S 37°53' W 160°11'0 0.0 1020.1 16.8
2016-Apr-24 14:00S 37°53' W 160°11'2 0.2 1020.9 16.8
2016-Apr-24 06:00S 37°54' W 160°13'1 0.5 1024.0 16.9
2016-Apr-24 04:00S 37°55' W 160°12'0 0.3 1024.6 16.9
2016-Apr-24 03:00S 37°54' W 160°12'1 0.7 1024.7 16.9
2016-Apr-24 01:00S 37°55' W 160°14'1 0.2 1025.0 16.9
2016-Apr-23 20:00S 37°56' W 160°14'1 0.6 1027.8 16.8
2016-Apr-23 19:00S 37°56' W 160°15'0 0.1 1028.0 16.8
2016-Apr-23 17:00S 37°56' W 160°14'1 0.8 1028.0 16.8
2016-Apr-23 16:00S 37°55' W 160°15'1 0.4 1028.0 16.8
2016-Apr-23 14:00S 37°56' W 160°15'0 0.1 1028.5 16.8
2016-Apr-23 12:00S 37°56' W 160°15'1 0.1 1029.4 16.8
2016-Apr-23 07:00S 37°56' W 160°15'64554351.9 1029.9 16.8
2016-Apr-23 05:31N 36°50' E 122°24'645512493.8
2016-Apr-23 05:00S 37°57' W 160°15'0 0.0 1030.1 16.8
2016-Apr-23 04:00S 37°57' W 160°15'1 1.5 1029.9 16.8
2016-Apr-23 03:00S 37°58' W 160°14'0 0.0 1029.9 16.8
2016-Apr-23 02:00S 37°58' W 160°14'2 0.8 1029.8 16.9
2016-Apr-23 00:00S 37°59' W 160°16'0 0.0 1029.8 16.9
2016-Apr-22 19:00S 37°59' W 160°16'1 0.7 1030.6 16.8
2016-Apr-22 18:00S 37°59' W 160°17'1 0.6 1030.2 16.8
2016-Apr-22 16:00S 37°59' W 160°15'   1029.8 16.8
Track history (hours):
 
Tides and Currents Weather Stations Pressure Air Temp Water Temp Dewpoint Dewpoint Depression Visibility Wind Speed Wind Dir Waves Ship Positions

Luruyu54955

Last reported at 2016-May-02 16:00 UTC. Time now 2016-May-02 23:16 UTC.
Position S 37°06' W 159°49'.

Length 27 m.

Type: Fishing. MMSI: 412330945.

Barometer 1018.9 mb
Water temperature 16.3 ° C

Date/timePositionNaut miles runAvg speedWind from/ knotsBaromVisibWave heightAir tempDewpointWater temp
2016-May-02 16:00S 37°06' W 159°49'1 0.9 1018.9 16.3
2016-May-02 15:00S 37°07' W 159°49'1 0.3 1018.5 16.3
2016-May-02 11:00S 37°08' W 159°50'1 0.2 1017.7 16.4
2016-May-02 05:00S 37°08' W 159°52'2 1.6 1014.2 16.4
2016-May-02 04:00S 37°09' W 159°50'1 1.2 1013.6 16.4
2016-May-02 03:00S 37°09' W 159°48'2 1.8 1013.2 16.4
2016-May-02 02:00S 37°10' W 159°50'0 0.0 1013.1 16.5
2016-May-02 01:00S 37°10' W 159°50'2 0.4 1013.2 16.4
2016-May-01 19:00S 37°12' W 159°51'1 0.9 1016.1 16.4
2016-May-01 18:00S 37°13' W 159°52'0 0.2 1015.8 16.4
2016-May-01 17:00S 37°13' W 159°52'0 0.5 1016.1 16.4
2016-May-01 16:00S 37°13' W 159°52'1 0.4 1015.9 16.4
2016-May-01 12:00S 37°14' W 159°54'0 0.0 1016.5 16.4
2016-May-01 11:00S 37°14' W 159°54'1 0.3 1016.6 16.4
2016-May-01 07:00S 37°15' W 159°53'1 0.3 1016.0 16.5
2016-May-01 05:00S 37°15' W 159°52'1 0.8 1015.2 16.4
2016-May-01 04:00S 37°16' W 159°52'1 0.7 1014.2 16.5
2016-May-01 03:00S 37°16' W 159°51'1 1.3 1013.7 16.5
2016-May-01 02:00S 37°17' W 159°52'0 0.0 1013.2 16.5
2016-May-01 01:00S 37°17' W 159°52'4 0.5 1012.7 16.5
2016-Apr-30 17:00S 37°21' W 159°53'1 0.6 1009.1 16.5
2016-Apr-30 15:00S 37°22' W 159°53'0 0.0 1007.9 16.5
2016-Apr-30 14:00S 37°22' W 159°53'1 0.5 1007.7 16.5
2016-Apr-30 12:00S 37°23' W 159°53'1 0.3 1008.7 16.6
2016-Apr-30 09:00S 37°24' W 159°54'0 0.0 1011.6 16.5
2016-Apr-30 08:00S 37°24' W 159°54'2 1.8 1012.2 16.5
2016-Apr-30 07:00S 37°25' W 159°55'1 0.4 1012.7 16.6
2016-Apr-30 05:00S 37°24' W 159°56'1 1.0 1013.9 16.6
2016-Apr-30 04:00S 37°25' W 159°55'0 0.3 1014.3 16.6
2016-Apr-30 03:00S 37°24' W 159°55'1 0.1 1014.7 16.6
2016-Apr-29 18:00S 37°26' W 159°56'0 0.0 1018.3 16.6
2016-Apr-29 17:00S 37°26' W 159°56'0 0.4 1018.2 16.6
2016-Apr-29 16:00S 37°26' W 159°56'0 0.5 1018.1 16.6
2016-Apr-29 15:00S 37°26' W 159°56'2 0.8 1018.1 16.6
2016-Apr-29 12:00S 37°29' W 159°57'0 0.1 1018.5 16.6
2016-Apr-29 07:00S 37°29' W 159°57'1 0.4 1018.5 16.7
2016-Apr-29 05:00S 37°29' W 159°56'1 0.3 1018.3 16.7
2016-Apr-29 02:00S 37°29' W 159°57'0 0.4 1017.0 16.7
2016-Apr-29 01:00S 37°29' W 159°57'1 0.3 1016.9 16.7
2016-Apr-28 20:00S 37°30' W 159°56'1 0.5 1016.9 16.7
2016-Apr-28 18:00S 37°31' W 159°56'1 0.3 1016.4 16.7
2016-Apr-28 16:00S 37°31' W 159°56'2 0.2 1016.0 16.7
2016-Apr-28 08:00S 37°32' W 159°58'1 0.2 1017.0 16.7
2016-Apr-28 05:00S 37°33' W 159°59'1 0.9 1017.4 16.7
2016-Apr-28 04:00S 37°34' W 159°58'1 0.5 1017.3 16.8
2016-Apr-28 02:00S 37°34' W 159°59'3 0.3 1017.6 16.8
2016-Apr-27 17:00S 37°37' W 160°01'0 0.0 1018.4 16.7
2016-Apr-27 16:00S 37°37' W 160°01'1 0.2 1018.5 16.7
2016-Apr-27 10:00S 37°37' W 159°59'1 0.3 1016.3 16.8
2016-Apr-27 08:00S 37°38' W 159°60'0 0.2 1015.3 16.8
2016-Apr-27 06:00S 37°38' W 159°59'1 0.5 1013.8 16.8
2016-Apr-27 04:00S 37°39' W 159°59'1 1.2 1012.0 16.8
2016-Apr-27 03:00S 37°40' W 159°59'0 0.0 1011.0 16.8
2016-Apr-27 02:00S 37°40' W 159°59'0 0.1 1010.4 16.8
2016-Apr-27 01:00S 37°40' W 159°59'1 0.3 1009.2 16.8
2016-Apr-26 20:00S 37°41' W 159°60'1 0.2 1006.2 16.8
2016-Apr-26 17:00S 37°42' W 159°59'1 0.5 1006.1 16.8
2016-Apr-26 16:00S 37°42' W 159°59'1 0.5 1006.4 16.8
2016-Apr-26 14:00S 37°43' W 160°00'1 1.0 1006.7 16.8
2016-Apr-26 13:00S 37°44' W 160°00'0 0.0 1007.5 16.8
2016-Apr-26 12:00S 37°44' W 160°00'0 0.2 1008.0 16.8
2016-Apr-26 09:00S 37°43' W 160°00'1 0.9 1009.2 16.8
2016-Apr-26 08:00S 37°44' W 160°01'1 0.3 1009.7 16.9
2016-Apr-26 05:00S 37°45' W 160°02'1 1.0 1010.6 16.9
2016-Apr-26 04:00S 37°45' W 160°00'3 2.7 1010.6 16.9
2016-Apr-26 03:00S 37°46' W 160°04'1 0.4 1010.6 16.9
2016-Apr-26 01:00S 37°46' W 160°03'0 0.0 1010.9 17.0
2016-Apr-25 23:00S 37°46' W 160°03'1 0.2 1012.0 16.9
2016-Apr-25 17:00S 37°47' W 160°03'2 1.7 1012.6 16.8
2016-Apr-25 16:00S 37°49' W 160°03'0 0.0 1012.5 16.8
2016-Apr-25 13:00S 37°49' W 160°03'4 0.6 1013.0 16.8
2016-Apr-25 06:00S 37°51' W 160°07'2 0.4 1014.8 16.9
2016-Apr-25 00:00S 37°52' W 160°10'0 0.0 1016.4 16.9
2016-Apr-24 23:00S 37°52' W 160°10'1 0.2 1017.6 16.9
2016-Apr-24 20:00S 37°53' W 160°09'1 0.3 1019.3 16.8
2016-Apr-24 17:00S 37°52' W 160°10'1 1.1 1019.9 16.8
2016-Apr-24 16:00S 37°53' W 160°11'0 0.0 1020.1 16.8
2016-Apr-24 14:00S 37°53' W 160°11'2 0.2 1020.9 16.8
2016-Apr-24 06:00S 37°54' W 160°13'1 0.5 1024.0 16.9
2016-Apr-24 04:00S 37°55' W 160°12'0 0.3 1024.6 16.9
2016-Apr-24 03:00S 37°54' W 160°12'1 0.7 1024.7 16.9
2016-Apr-24 01:00S 37°55' W 160°14'1 0.2 1025.0 16.9
2016-Apr-23 20:00S 37°56' W 160°14'1 0.6 1027.8 16.8
2016-Apr-23 19:00S 37°56' W 160°15'0 0.1 1028.0 16.8
2016-Apr-23 17:00S 37°56' W 160°14'1 0.8 1028.0 16.8
2016-Apr-23 16:00S 37°55' W 160°15'1 0.4 1028.0 16.8
2016-Apr-23 14:00S 37°56' W 160°15'0 0.1 1028.5 16.8
2016-Apr-23 12:00S 37°56' W 160°15'1 0.1 1029.4 16.8
2016-Apr-23 07:00S 37°56' W 160°15'64554351.9 1029.9 16.8
2016-Apr-23 05:31N 36°50' E 122°24'645512493.8
2016-Apr-23 05:00S 37°57' W 160°15'0 0.0 1030.1 16.8
2016-Apr-23 04:00S 37°57' W 160°15'1 1.5 1029.9 16.8
2016-Apr-23 03:00S 37°58' W 160°14'0 0.0 1029.9 16.8
2016-Apr-23 02:00S 37°58' W 160°14'2 0.8 1029.8 16.9
2016-Apr-23 00:00S 37°59' W 160°16'0 0.0 1029.8 16.9
2016-Apr-22 19:00S 37°59' W 160°16'1 0.7 1030.6 16.8
2016-Apr-22 18:00S 37°59' W 160°17'1 0.6 1030.2 16.8
2016-Apr-22 16:00S 37°59' W 160°15'   1029.8 16.8

Dump ship's entire track history